Time;durP1;ratioP1;P1;durP2;ratioP2;P2;SDS_P1;SDS_P2;PMS_P1;PMS_P2;Temp;Humidity;BMP_temperature;BMP_pressure;BME280_temperature;BME280_humidity;BME280_pressure;Samples;Min_cycle;Max_cycle;Signal;HPM_P1;HPM_P2
2023/10/04 00:00:51;;;;;;;12.97;2.80;;;13.00;1.00;;;;;;5095433;28;20985;-49
2023/10/04 00:03:18;;;;;;;12.57;3.30;;;12.90;1.00;;;;;;5095978;28;20418;-48
2023/10/04 00:05:44;;;;;;;7.23;2.67;;;12.90;1.00;;;;;;5095698;28;20416;-48
2023/10/04 00:08:09;;;;;;;16.23;3.30;;;12.80;99.90;;;;;;5095458;28;20454;-47
2023/10/04 00:10:35;;;;;;;8.80;2.83;;;12.90;99.90;;;;;;5095694;28;20188;-48
2023/10/04 00:13:00;;;;;;;6.70;2.47;;;12.90;99.90;;;;;;5095166;28;20600;-48
2023/10/04 00:15:28;;;;;;;7.30;2.43;;;13.00;1.00;;;;;;5095563;28;20186;-48
2023/10/04 00:17:54;;;;;;;12.53;3.67;;;13.00;1.00;;;;;;5094451;28;20580;-47
2023/10/04 00:20:21;;;;;;;10.37;3.00;;;12.90;1.00;;;;;;5094128;28;20410;-47
2023/10/04 00:22:47;;;;;;;10.20;3.13;;;13.00;99.90;;;;;;5093849;28;20655;-48
2023/10/04 00:25:20;;;;;;;11.77;2.53;;;13.00;44.50;;;;;;5094146;28;20489;-47
2023/10/04 00:27:59;;;;;;;12.23;2.20;;;13.00;18.80;;;;;;5095303;28;20459;-48
2023/10/04 00:30:27;;;;;;;11.93;2.77;;;13.10;1.00;;;;;;5095907;28;20406;-48
2023/10/04 00:32:54;;;;;;;14.90;3.07;;;13.10;99.90;;;;;;5095447;28;20510;-48
2023/10/04 00:35:21;;;;;;;8.13;2.50;;;13.10;99.90;;;;;;5095247;28;20448;-48
2023/10/04 00:37:55;;;;;;;11.07;3.10;;;13.10;99.90;;;;;;5095231;28;20777;-48
2023/10/04 00:40:24;;;;;;;9.00;2.90;;;13.10;99.90;;;;;;5095252;28;20427;-48
2023/10/04 00:42:51;;;;;;;9.50;2.50;;;13.10;99.90;;;;;;5095189;28;20510;-47
2023/10/04 00:45:17;;;;;;;8.27;2.57;;;13.10;99.90;;;;;;5095438;28;20415;-48
2023/10/04 00:47:47;;;;;;;6.47;2.23;;;13.00;99.90;;;;;;5095182;28;20458;-47
2023/10/04 00:50:18;;;;;;;5.83;2.23;;;13.10;91.80;;;;;;5095124;28;20776;-48
2023/10/04 00:52:49;;;;;;;9.40;2.63;;;13.10;52.10;;;;;;5095172;28;20412;-47
2023/10/04 00:55:19;;;;;;;8.60;2.60;;;13.00;99.90;;;;;;5094957;28;20784;-49
2023/10/04 00:57:49;;;;;;;5.63;2.50;;;13.00;99.90;;;;;;5094749;28;20416;-50
2023/10/04 01:00:15;;;;;;;15.50;2.90;;;13.00;99.90;;;;;;5094539;28;20427;-50
2023/10/04 01:02:41;;;;;;;11.50;2.83;;;13.00;90.50;;;;;;5094688;28;20411;-49
2023/10/04 01:05:07;;;;;;;6.97;2.60;;;13.00;99.90;;;;;;5094642;28;20487;-49
2023/10/04 01:07:35;;;;;;;12.80;2.80;;;12.90;99.90;;;;;;5094318;28;20826;-49
2023/10/04 01:10:01;;;;;;;7.10;2.23;;;13.00;99.90;;;;;;5094548;28;20805;-49
2023/10/04 01:12:26;;;;;;;10.70;2.40;;;13.00;99.90;;;;;;5094485;28;20419;-48
2023/10/04 01:14:53;;;;;;;10.93;2.80;;;12.90;99.90;;;;;;5094552;28;20188;-49
2023/10/04 01:17:20;;;;;;;4.67;2.33;;;13.00;99.90;;;;;;5094571;28;20189;-48
2023/10/04 01:19:45;;;;;;;6.67;2.53;;;13.00;99.90;;;;;;5094588;28;20507;-48
2023/10/04 01:22:11;;;;;;;5.20;2.40;;;12.90;99.90;;;;;;5094497;28;20914;-49
2023/10/04 01:24:41;;;;;;;7.40;2.40;;;12.90;99.90;;;;;;5093909;28;20290;-49
2023/10/04 01:27:10;;;;;;;6.03;2.40;;;12.90;99.90;;;;;;5093952;28;20293;-48
2023/10/04 01:29:38;;;;;;;9.53;3.30;;;12.90;99.90;;;;;;5095704;28;20568;-50
2023/10/04 01:32:05;;;;;;;5.77;2.43;;;12.90;99.90;;;;;;5094563;28;21016;-49
2023/10/04 01:34:30;;;;;;;7.80;2.60;;;12.90;99.90;;;;;;5094361;28;20509;-48
2023/10/04 01:36:56;;;;;;;8.83;2.90;;;12.90;99.90;;;;;;5094471;28;20549;-49
2023/10/04 01:39:22;;;;;;;10.10;2.73;;;12.80;1.00;;;;;;5093946;28;20188;-49
2023/10/04 01:41:49;;;;;;;5.73;2.30;;;12.80;1.00;;;;;;5094304;28;20177;-48
2023/10/04 01:44:15;;;;;;;8.60;2.60;;;12.80;1.00;;;;;;5094435;28;20440;-49
2023/10/04 01:46:42;;;;;;;13.37;3.10;;;12.80;1.00;;;;;;5093212;28;20518;-49
2023/10/04 01:49:08;;;;;;;7.50;2.77;;;12.80;1.00;;;;;;5094193;28;20457;-50
2023/10/04 01:51:34;;;;;;;8.33;2.33;;;12.80;1.00;;;;;;5094279;28;20448;-49
2023/10/04 01:54:00;;;;;;;13.17;2.63;;;12.80;99.90;;;;;;5093919;28;20518;-48
2023/10/04 01:56:26;;;;;;;7.10;2.50;;;12.70;99.90;;;;;;5093852;28;20909;-48
2023/10/04 01:58:54;;;;;;;7.07;2.83;;;12.70;17.50;;;;;;5093873;28;20419;-48
2023/10/04 02:01:20;;;;;;;7.43;3.00;;;12.80;99.90;;;;;;5094313;28;20461;-48
2023/10/04 02:03:45;;;;;;;11.70;2.90;;;12.80;25.50;;;;;;5094218;28;20898;-49
2023/10/04 02:06:11;;;;;;;6.73;2.57;;;12.80;1.00;;;;;;5094030;28;20223;-48
2023/10/04 02:08:37;;;;;;;7.20;2.60;;;12.80;1.00;;;;;;5093918;28;20501;-49
2023/10/04 02:11:06;;;;;;;19.80;2.90;;;12.80;1.00;;;;;;5093823;28;20179;-48
2023/10/04 02:13:32;;;;;;;9.13;3.20;;;12.80;1.00;;;;;;5093808;28;20192;-48
2023/10/04 02:15:59;;;;;;;10.90;2.97;;;12.80;99.90;;;;;;5093684;28;20415;-48
2023/10/04 02:18:25;;;;;;;9.70;2.93;;;12.90;99.90;;;;;;5094175;28;20765;-49
2023/10/04 02:20:53;;;;;;;9.13;2.93;;;12.80;12.80;;;;;;5094176;28;20413;-49
2023/10/04 02:23:18;;;;;;;8.40;2.50;;;12.80;41.00;;;;;;5094015;28;20414;-48
2023/10/04 02:25:45;;;;;;;9.20;2.50;;;12.80;99.90;;;;;;5093647;28;20921;-50
2023/10/04 02:28:11;;;;;;;11.00;3.60;;;12.80;99.90;;;;;;5093198;28;20204;-49
2023/10/04 02:30:38;;;;;;;14.27;3.03;;;12.70;1.00;;;;;;5093354;28;20921;-50
2023/10/04 02:33:13;;;;;;;14.83;3.33;;;12.70;99.90;;;;;;5093856;28;20425;-48
2023/10/04 02:35:50;;;;;;;13.33;2.77;;;12.70;1.00;;;;;;5093676;28;20446;-49
2023/10/04 02:38:19;;;;;;;9.10;2.83;;;12.80;1.00;;;;;;5093429;28;20431;-48
2023/10/04 02:40:51;;;;;;;8.50;3.10;;;12.70;99.90;;;;;;5093605;28;20521;-49
2023/10/04 02:43:18;;;;;;;7.80;2.93;;;12.70;99.90;;;;;;5093861;28;20422;-49
2023/10/04 02:45:43;;;;;;;12.80;3.50;;;12.80;99.90;;;;;;5093449;28;20425;-50
2023/10/04 02:48:10;;;;;;;8.40;2.90;;;12.80;1.00;;;;;;5093328;28;20461;-49
2023/10/04 02:50:39;;;;;;;16.00;2.90;;;12.80;1.00;;;;;;5093748;28;20177;-49
2023/10/04 02:53:06;;;;;;;10.73;3.10;;;12.80;99.90;;;;;;5093584;28;20423;-48
2023/10/04 02:55:32;;;;;;;17.10;3.40;;;12.80;1.00;;;;;;5093013;28;20431;-49
2023/10/04 02:57:59;;;;;;;12.17;3.20;;;12.90;99.90;;;;;;5096055;28;20424;-48
2023/10/04 03:00:25;;;;;;;13.30;3.03;;;12.90;1.00;;;;;;5096683;28;20616;-49
2023/10/04 03:02:52;;;;;;;9.20;2.93;;;12.80;1.00;;;;;;5096650;28;20415;-48
2023/10/04 03:05:19;;;;;;;10.10;2.73;;;12.80;99.90;;;;;;5096627;28;20275;-48
2023/10/04 03:07:47;;;;;;;10.00;2.77;;;12.80;38.50;;;;;;5096512;28;20466;-49
2023/10/04 03:10:13;;;;;;;11.10;2.80;;;12.80;99.90;;;;;;5096599;28;20418;-48
2023/10/04 03:12:41;;;;;;;12.60;3.30;;;12.80;91.50;;;;;;5095609;28;20444;-49
2023/10/04 03:15:07;;;;;;;8.03;3.03;;;12.80;17.20;;;;;;5095948;28;20448;-48
2023/10/04 03:17:33;;;;;;;11.30;3.80;;;12.80;9.70;;;;;;5096447;28;20448;-48
2023/10/04 03:20:00;;;;;;;12.17;3.27;;;12.80;1.00;;;;;;5096829;28;20496;-50
2023/10/04 03:22:26;;;;;;;10.33;3.17;;;12.70;1.00;;;;;;5096736;28;20856;-48
2023/10/04 03:24:53;;;;;;;10.53;2.73;;;12.70;99.90;;;;;;5096781;28;20553;-49
2023/10/04 03:27:21;;;;;;;12.90;2.77;;;12.60;99.90;;;;;;5096508;28;20243;-48
2023/10/04 03:29:48;;;;;;;8.87;2.60;;;12.70;42.20;;;;;;5096200;28;20426;-50
2023/10/04 03:32:14;;;;;;;13.13;3.00;;;12.80;28.60;;;;;;5096205;28;20421;-49
2023/10/04 03:34:40;;;;;;;8.20;2.60;;;12.70;99.90;;;;;;5096376;28;20457;-49
2023/10/04 03:37:13;;;;;;;14.57;3.50;;;12.70;1.00;;;;;;5096597;28;20913;-48
2023/10/04 03:39:39;;;;;;;8.50;3.00;;;12.70;1.00;;;;;;5095997;28;20176;-48
2023/10/04 03:42:05;;;;;;;10.53;3.10;;;12.70;99.90;;;;;;5096303;28;20417;-48
2023/10/04 03:44:31;;;;;;;8.90;2.93;;;12.60;99.90;;;;;;5096185;28;20186;-49
2023/10/04 03:46:57;;;;;;;11.63;3.90;;;12.60;99.90;;;;;;5095551;28;20454;-50
2023/10/04 03:49:23;;;;;;;5.57;2.70;;;12.60;99.90;;;;;;5096070;28;20189;-48
2023/10/04 03:51:56;;;;;;;9.50;2.60;;;12.60;99.90;;;;;;5098205;28;20275;-48
2023/10/04 03:54:21;;;;;;;7.70;2.90;;;12.60;99.90;;;;;;5096595;28;20416;-50
2023/10/04 03:56:47;;;;;;;10.23;2.70;;;12.60;99.90;;;;;;5095658;28;20524;-50
2023/10/04 03:59:13;;;;;;;9.10;3.07;;;12.60;99.90;;;;;;5095898;28;20234;-50
2023/10/04 04:01:38;;;;;;;11.87;2.80;;;12.60;99.90;;;;;;5095635;28;20199;-48
2023/10/04 04:04:05;;;;;;;6.87;2.97;;;12.60;99.90;;;;;;5095569;28;20259;-49
2023/10/04 04:06:31;;;;;;;11.97;3.07;;;12.60;99.90;;;;;;5095393;28;20624;-49
2023/10/04 04:08:59;;;;;;;12.10;2.80;;;12.60;20.50;;;;;;5094927;28;20472;-49
2023/10/04 04:11:25;;;;;;;9.77;2.70;;;12.60;1.00;;;;;;5095699;28;20193;-48
2023/10/04 04:13:51;;;;;;;9.50;2.80;;;12.60;99.90;;;;;;5095199;28;20421;-49
2023/10/04 04:16:19;;;;;;;11.73;2.67;;;12.50;99.90;;;;;;5095875;28;20258;-47
2023/10/04 04:18:51;;;;;;;16.17;2.80;;;12.50;1.00;;;;;;5095708;28;20583;-48
2023/10/04 04:21:17;;;;;;;5.83;2.93;;;12.50;1.00;;;;;;5095869;28;20426;-47
2023/10/04 04:23:42;;;;;;;14.63;3.40;;;12.50;1.00;;;;;;5095174;28;20474;-48
2023/10/04 04:26:08;;;;;;;11.07;3.37;;;12.50;1.00;;;;;;5095746;28;20617;-48
2023/10/04 04:28:37;;;;;;;11.77;2.70;;;12.60;99.90;;;;;;5095116;28;20218;-47
2023/10/04 04:31:14;;;;;;;11.20;2.60;;;12.60;71.70;;;;;;5095402;28;20184;-48
2023/10/04 04:33:40;;;;;;;13.00;3.57;;;12.60;99.90;;;;;;5095087;28;20407;-48
2023/10/04 04:36:12;;;;;;;8.30;2.50;;;12.50;99.90;;;;;;5095250;28;20898;-48
2023/10/04 04:38:38;;;;;;;9.43;3.30;;;12.60;99.90;;;;;;5095553;28;20803;-50
2023/10/04 04:41:12;;;;;;;11.27;2.50;;;12.50;1.00;;;;;;5095374;28;20423;-49
2023/10/04 04:43:39;;;;;;;16.83;3.10;;;12.60;1.00;;;;;;5095357;28;20415;-48
2023/10/04 04:46:14;;;;;;;15.83;3.50;;;12.60;1.00;;;;;;5094978;28;20413;-48
2023/10/04 04:48:40;;;;;;;10.03;3.00;;;12.60;1.00;;;;;;5094939;28;20515;-48
2023/10/04 04:51:10;;;;;;;12.00;3.37;;;12.60;1.00;;;;;;5094894;28;20908;-49
2023/10/04 04:53:43;;;;;;;18.30;3.27;;;12.50;1.00;;;;;;5095290;28;20450;-49
2023/10/04 04:56:12;;;;;;;9.43;2.80;;;12.50;88.90;;;;;;5094770;28;20970;-49
2023/10/04 04:58:38;;;;;;;12.33;2.90;;;12.50;99.90;;;;;;5095031;28;20424;-48
2023/10/04 05:01:08;;;;;;;11.20;3.10;;;12.50;91.70;;;;;;5095051;28;20446;-48
2023/10/04 05:03:34;;;;;;;16.87;3.20;;;12.50;54.00;;;;;;5095045;28;20418;-49
2023/10/04 05:06:00;;;;;;;20.20;3.43;;;12.50;92.80;;;;;;5094730;28;20501;-48
2023/10/04 05:08:26;;;;;;;12.33;3.00;;;12.50;99.90;;;;;;5094295;28;20311;-48
2023/10/04 05:10:54;;;;;;;14.40;3.67;;;12.40;99.90;;;;;;5094616;28;20183;-49
2023/10/04 05:13:20;;;;;;;21.17;3.00;;;12.40;99.90;;;;;;5094594;28;20222;-50
2023/10/04 05:15:46;;;;;;;11.53;3.20;;;12.50;94.10;;;;;;5094859;28;20428;-48
2023/10/04 05:18:17;;;;;;;11.27;3.07;;;12.50;1.00;;;;;;5094511;28;20410;-49
2023/10/04 05:20:51;;;;;;;13.20;3.93;;;12.50;1.00;;;;;;5093580;28;20421;-49
2023/10/04 05:23:24;;;;;;;18.27;4.00;;;12.50;1.00;;;;;;5094378;28;20501;-48
2023/10/04 05:25:52;;;;;;;9.80;2.97;;;12.40;1.00;;;;;;5094235;28;20891;-49
2023/10/04 05:28:18;;;;;;;12.33;3.60;;;12.50;17.30;;;;;;5094335;28;20491;-49
2023/10/04 05:30:45;;;;;;;13.07;3.70;;;12.50;1.00;;;;;;5094125;28;20437;-48
2023/10/04 05:33:15;;;;;;;9.27;3.20;;;12.50;99.90;;;;;;5094567;28;20418;-49
2023/10/04 05:35:44;;;;;;;15.93;3.40;;;12.50;1.00;;;;;;5094180;28;20923;-48
2023/10/04 05:38:11;;;;;;;10.70;3.37;;;12.50;99.90;;;;;;5094162;28;20457;-48
2023/10/04 05:40:38;;;;;;;16.37;3.43;;;12.50;99.90;;;;;;5094598;28;20501;-50
2023/10/04 05:43:05;;;;;;;12.00;3.60;;;12.50;1.00;;;;;;5094165;28;20841;-48
2023/10/04 05:45:32;;;;;;;14.30;3.47;;;12.50;1.00;;;;;;5094101;28;20498;-49
2023/10/04 05:47:59;;;;;;;16.67;4.70;;;12.50;1.00;;;;;;5093708;28;20515;-49
2023/10/04 05:50:25;;;;;;;17.97;3.77;;;12.50;3.60;;;;;;5093871;28;20449;-48
2023/10/04 05:52:52;;;;;;;13.70;3.57;;;12.50;99.90;;;;;;5094116;28;20464;-49
2023/10/04 05:55:21;;;;;;;15.40;3.93;;;12.60;1.00;;;;;;5094240;28;20458;-50
2023/10/04 05:57:48;;;;;;;19.37;4.30;;;12.50;22.30;;;;;;5093789;28;20418;-48
2023/10/04 06:00:23;;;;;;;18.70;4.77;;;12.50;1.00;;;;;;5094269;28;20421;-47
2023/10/04 06:02:53;;;;;;;14.00;4.40;;;12.60;99.90;;;;;;5093996;28;20436;-48
2023/10/04 06:05:31;;;;;;;15.93;4.07;;;12.60;78.80;;;;;;5093986;28;20759;-47
2023/10/04 06:07:57;;;;;;;18.07;4.87;;;12.60;1.00;;;;;;5094172;28;20461;-47
2023/10/04 06:10:24;;;;;;;21.73;4.93;;;12.60;1.00;;;;;;5094243;28;20425;-48
2023/10/04 06:12:54;;;;;;;12.80;4.43;;;12.70;99.90;;;;;;5093401;28;20890;-48
2023/10/04 06:15:20;;;;;;;17.20;4.40;;;12.70;1.00;;;;;;5093878;28;20418;-48
2023/10/04 06:17:47;;;;;;;20.40;3.93;;;12.70;1.00;;;;;;5094189;28;20410;-47
2023/10/04 06:20:23;;;;;;;19.40;3.97;;;12.80;1.00;;;;;;5093745;28;20414;-48
2023/10/04 06:23:00;;;;;;;15.57;4.40;;;12.90;1.00;;;;;;5093541;28;20501;-48
2023/10/04 06:25:27;;;;;;;16.33;4.17;;;13.00;1.00;;;;;;5093546;28;20799;-48
2023/10/04 06:27:57;;;;;;;17.13;3.43;;;13.00;1.00;;;;;;5091841;28;20462;-47
2023/10/04 06:30:24;;;;;;;15.47;4.50;;;13.00;99.90;;;;;;5094046;28;20466;-47
2023/10/04 06:32:55;;;;;;;17.30;3.63;;;13.00;99.90;;;;;;5096554;28;20422;-48
2023/10/04 06:35:24;;;;;;;19.83;4.60;;;13.00;99.90;;;;;;5097844;28;20417;-47
2023/10/04 06:38:01;;;;;;;13.63;4.10;;;13.00;77.80;;;;;;5097640;28;20520;-48
2023/10/04 06:40:31;;;;;;;13.73;4.17;;;13.10;99.90;;;;;;5097311;28;20486;-47
2023/10/04 06:42:58;;;;;;;19.10;3.83;;;13.10;99.90;;;;;;5097798;28;20406;-48
2023/10/04 06:45:24;;;;;;;10.50;3.30;;;13.10;24.70;;;;;;5097337;28;20414;-46
2023/10/04 06:47:51;;;;;;;13.53;3.63;;;13.20;1.00;;;;;;5097206;28;20456;-46
2023/10/04 06:50:21;;;;;;;8.37;2.73;;;13.20;1.00;;;;;;5097297;28;20419;-46
2023/10/04 06:52:49;;;;;;;16.63;3.90;;;13.40;1.00;;;;;;5097241;28;20418;-47
2023/10/04 06:55:15;;;;;;;11.23;3.40;;;13.50;1.00;;;;;;5097437;28;20458;-46
2023/10/04 06:57:42;;;;;;;14.03;3.13;;;13.60;45.40;;;;;;5096896;28;20427;-47
2023/10/04 07:00:14;;;;;;;12.77;3.57;;;13.70;1.00;;;;;;5097195;28;20765;-48
2023/10/04 07:02:58;;;;;;;11.50;2.93;;;13.70;1.00;;;;;;5097162;28;20832;-48
2023/10/04 07:05:38;;;;;;;13.03;3.00;;;13.80;99.90;;;;;;5096667;28;20731;-48
2023/10/04 07:08:06;;;;;;;12.97;3.03;;;13.80;99.90;;;;;;5096968;28;20526;-48
2023/10/04 07:10:33;;;;;;;7.23;2.57;;;13.90;99.90;;;;;;5097019;28;20427;-49
2023/10/04 07:13:00;;;;;;;11.63;2.73;;;13.90;99.90;;;;;;5097183;28;20415;-49
2023/10/04 07:15:30;;;;;;;17.23;2.90;;;13.90;99.90;;;;;;5096877;28;20427;-47
2023/10/04 07:17:57;;;;;;;13.03;3.37;;;13.80;96.30;;;;;;5096661;28;20419;-48
2023/10/04 07:20:24;;;;;;;8.17;3.50;;;13.80;99.90;;;;;;5096837;28;20872;-47
2023/10/04 07:22:58;;;;;;;12.00;2.90;;;13.90;94.20;;;;;;5096708;28;20444;-47
2023/10/04 07:25:27;;;;;;;10.57;3.20;;;14.00;99.90;;;;;;5096226;28;20874;-48
2023/10/04 07:27:55;;;;;;;14.70;3.47;;;14.20;1.00;;;;;;5096479;28;20514;-49
2023/10/04 07:30:22;;;;;;;9.70;2.90;;;14.50;1.00;;;;;;5096827;28;20434;-49
2023/10/04 07:32:48;;;;;;;15.13;3.63;;;14.50;99.90;;;;;;5096474;28;20433;-49
2023/10/04 07:35:18;;;;;;;13.37;3.20;;;14.40;99.90;;;;;;5096546;28;20407;-48
2023/10/04 07:37:45;;;;;;;14.77;3.20;;;14.30;99.90;;;;;;5096753;28;20747;-49
2023/10/04 07:40:15;;;;;;;13.80;3.83;;;14.20;1.00;;;;;;5096457;28;20806;-48
2023/10/04 07:42:45;;;;;;;11.97;3.53;;;14.60;1.00;;;;;;5095733;28;20941;-49
2023/10/04 07:45:12;;;;;;;14.10;3.47;;;14.90;99.90;;;;;;5096090;28;20407;-49
2023/10/04 07:47:43;;;;;;;10.23;3.10;;;15.30;99.90;;;;;;5096338;28;20456;-50
2023/10/04 07:50:10;;;;;;;10.07;3.10;;;15.70;99.90;;;;;;5096573;28;20407;-50
2023/10/04 07:52:40;;;;;;;13.40;3.30;;;15.90;45.80;;;;;;5096613;28;20408;-48
2023/10/04 07:55:19;;;;;;;20.80;4.03;;;16.20;2.30;;;;;;5096412;28;20417;-50
2023/10/04 07:57:53;;;;;;;8.77;3.00;;;16.60;1.00;;;;;;5096431;28;20716;-50
2023/10/04 08:00:19;;;;;;;10.50;2.80;;;16.90;1.00;;;;;;5096086;28;20535;-49
2023/10/04 08:02:46;;;;;;;10.33;2.77;;;17.00;1.00;;;;;;5095935;28;20419;-50
2023/10/04 08:05:19;;;;;;;12.03;2.60;;;17.00;1.00;;;;;;5095880;28;20512;-50
2023/10/04 08:07:49;;;;;;;12.13;2.83;;;17.20;1.00;;;;;;5095980;28;20452;-50
2023/10/04 08:10:16;;;;;;;13.67;3.40;;;17.50;1.00;;;;;;5095695;28;20556;-49
2023/10/04 08:12:42;;;;;;;12.37;2.77;;;17.70;1.00;;;;;;5095446;28;20932;-49
2023/10/04 08:15:13;;;;;;;13.00;3.10;;;17.90;1.00;;;;;;5095752;28;20413;-50
2023/10/04 08:17:43;;;;;;;10.57;2.40;;;18.10;1.00;;;;;;5095833;28;20720;-49
2023/10/04 08:20:13;;;;;;;7.43;2.50;;;17.90;1.00;;;;;;5095491;28;20423;-49
2023/10/04 08:22:42;;;;;;;240.03;136.40;;;17.90;1.00;;;;;;5095498;28;20393;-49
2023/10/04 08:25:13;;;;;;;18.30;4.73;;;18.00;1.00;;;;;;5094978;28;20473;-49
2023/10/04 08:27:39;;;;;;;10.43;2.77;;;18.20;1.00;;;;;;5095622;28;20468;-49
2023/10/04 08:30:11;;;;;;;8.33;2.93;;;18.40;1.00;;;;;;5095473;28;20790;-50
2023/10/04 08:32:37;;;;;;;8.00;2.97;;;18.40;1.00;;;;;;5095693;28;20418;-51
2023/10/04 08:35:03;;;;;;;9.87;3.00;;;18.50;1.00;;;;;;5095315;28;20762;-50
2023/10/04 08:37:29;;;;;;;9.00;2.70;;;18.40;1.00;;;;;;5094281;28;20443;-51
2023/10/04 08:39:55;;;;;;;5.03;2.37;;;18.20;1.00;;;;;;5095287;28;20426;-50
2023/10/04 08:42:23;;;;;;;9.30;2.43;;;18.30;1.00;;;;;;5094856;28;20509;-50
2023/10/04 08:44:49;;;;;;;10.73;2.70;;;18.20;1.00;;;;;;5095045;28;20196;-50
2023/10/04 08:47:16;;;;;;;11.37;3.13;;;18.10;1.00;;;;;;5095235;28;20462;-49
2023/10/04 08:49:50;;;;;;;10.50;2.77;;;18.10;1.00;;;;;;5094665;28;20184;-50
2023/10/04 08:52:23;;;;;;;8.50;2.80;;;17.80;1.00;;;;;;5095012;28;20458;-49
2023/10/04 08:54:53;;;;;;;12.27;3.20;;;17.80;1.00;;;;;;5094798;28;20453;-49
2023/10/04 08:57:21;;;;;;;7.83;3.33;;;17.80;1.00;;;;;;5095541;28;20472;-50
2023/10/04 08:59:49;;;;;;;7.63;2.77;;;17.70;1.00;;;;;;5095245;28;20480;-50
2023/10/04 09:02:15;;;;;;;15.33;3.50;;;17.70;1.00;;;;;;5095404;28;20436;-50
2023/10/04 09:04:42;;;;;;;14.93;3.03;;;17.60;1.00;;;;;;5094922;28;20528;-50
2023/10/04 09:07:09;;;;;;;6.73;2.80;;;17.30;1.00;;;;;;5094956;28;20515;-49
2023/10/04 09:09:39;;;;;;;11.10;3.07;;;17.10;1.00;;;;;;5095138;28;20417;-51
2023/10/04 09:12:08;;;;;;;18.20;3.40;;;16.90;1.00;;;;;;5095183;28;20418;-50
2023/10/04 09:14:36;;;;;;;11.83;3.17;;;16.90;1.00;;;;;;5094758;28;20429;-50
2023/10/04 09:17:07;;;;;;;12.13;3.13;;;16.70;1.00;;;;;;5094806;28;20448;-50
2023/10/04 09:19:33;;;;;;;12.33;3.20;;;16.90;1.00;;;;;;5094767;28;20426;-50
2023/10/04 09:22:09;;;;;;;10.57;2.70;;;16.90;1.00;;;;;;5094408;28;20906;-51
2023/10/04 09:24:54;;;;;;;20.37;3.27;;;17.00;1.00;;;;;;5094214;28;20610;-49
2023/10/04 09:27:21;;;;;;;12.07;3.10;;;17.10;1.00;;;;;;5094448;28;20449;-51
2023/10/04 09:29:48;;;;;;;11.90;3.13;;;17.10;1.00;;;;;;5094289;28;20428;-50
2023/10/04 09:32:14;;;;;;;22.80;3.57;;;17.00;1.00;;;;;;5094894;28;20499;-52
2023/10/04 09:34:53;;;;;;;7.27;2.23;;;17.00;1.00;;;;;;5094466;28;20421;-49
2023/10/04 09:37:21;;;;;;;12.47;3.57;;;17.00;1.00;;;;;;5094557;28;20397;-51
2023/10/04 09:39:46;;;;;;;9.37;2.50;;;17.00;1.00;;;;;;5094271;28;20418;-50
2023/10/04 09:42:14;;;;;;;12.37;3.10;;;17.10;1.00;;;;;;5094098;28;20414;-50
2023/10/04 09:44:40;;;;;;;17.00;4.17;;;17.20;1.00;;;;;;5094119;28;20192;-49
2023/10/04 09:47:07;;;;;;;16.63;3.27;;;17.20;1.00;;;;;;5094199;28;20464;-50
2023/10/04 09:49:35;;;;;;;7.53;2.80;;;17.20;1.00;;;;;;5094234;28;20635;-49
2023/10/04 09:52:06;;;;;;;14.63;3.23;;;17.30;1.00;;;;;;5094331;28;20505;-50
2023/10/04 09:54:33;;;;;;;11.10;3.20;;;17.40;1.00;;;;;;5094382;28;20455;-52
2023/10/04 09:57:03;;;;;;;11.03;3.10;;;17.50;1.00;;;;;;5094253;28;20823;-49
2023/10/04 09:59:29;;;;;;;12.70;3.83;;;17.70;1.00;;;;;;5094046;28;20445;-50
2023/10/04 10:01:57;;;;;;;10.43;3.10;;;17.70;1.00;;;;;;5094260;28;20488;-50
2023/10/04 10:04:23;;;;;;;23.57;3.40;;;17.60;1.00;;;;;;5094085;28;20410;-51
2023/10/04 10:07:16;;;;;;;7.60;2.60;;;17.70;1.00;;;;;;5095284;28;20484;-50
2023/10/04 10:09:53;;;;;;;20.13;3.07;;;17.80;1.00;;;;;;5098302;28;20423;-49
2023/10/04 10:12:20;;;;;;;7.80;2.47;;;18.00;1.00;;;;;;5098457;28;20454;-50
2023/10/04 10:14:48;;;;;;;12.07;3.00;;;18.10;1.00;;;;;;5098235;28;20414;-52
2023/10/04 10:17:14;;;;;;;11.17;3.90;;;18.10;1.00;;;;;;5098042;28;20926;-51
2023/10/04 10:19:39;;;;;;;13.37;3.20;;;18.40;1.00;;;;;;5098142;28;20471;-50
2023/10/04 10:22:08;;;;;;;10.07;3.07;;;18.80;1.00;;;;;;5097838;28;20779;-50
2023/10/04 10:24:34;;;;;;;11.93;2.87;;;19.00;1.00;;;;;;5097609;28;20232;-50
2023/10/04 10:27:24;;;;;;;11.90;3.23;;;19.10;1.00;;;;;;5097984;28;20848;-52
2023/10/04 10:29:51;;;;;;;12.83;3.63;;;19.10;1.00;;;;;;5087943;28;20435;-51
2023/10/04 10:32:20;;;;;;;14.17;3.33;;;19.20;1.00;;;;;;5097763;28;20757;-50
2023/10/04 10:34:52;;;;;;;12.73;3.57;;;19.30;1.00;;;;;;5097866;28;20752;-51
2023/10/04 10:37:22;;;;;;;13.30;3.20;;;19.20;1.00;;;;;;5097989;28;20405;-50
2023/10/04 10:39:49;;;;;;;8.67;3.60;;;18.90;1.00;;;;;;5097741;28;20466;-51
2023/10/04 10:42:15;;;;;;;13.37;3.43;;;18.60;1.00;;;;;;5097197;28;20931;-51
2023/10/04 10:44:42;;;;;;;9.40;2.87;;;19.40;1.00;;;;;;5097447;28;20563;-50
2023/10/04 10:47:22;;;;;;;9.03;3.30;;;20.10;1.00;;;;;;5097297;28;21008;-50
2023/10/04 10:49:55;;;;;;;10.83;3.33;;;20.90;1.00;;;;;;5097639;28;20410;-50
2023/10/04 10:52:21;;;;;;;15.10;3.17;;;21.30;1.00;;;;;;5097766;28;20406;-50
2023/10/04 10:54:47;;;;;;;15.67;4.87;;;21.80;1.00;;;;;;5097465;28;20797;-50
2023/10/04 10:57:13;;;;;;;8.47;3.30;;;21.40;1.00;;;;;;5097269;28;20513;-50
2023/10/04 10:59:40;;;;;;;10.23;3.40;;;20.90;1.00;;;;;;5097018;28;20852;-50
2023/10/04 11:02:06;;;;;;;12.30;3.40;;;20.60;1.00;;;;;;5097140;28;20465;-50
2023/10/04 11:04:32;;;;;;;12.27;3.10;;;20.00;1.00;;;;;;5097261;28;20408;-51
2023/10/04 11:06:57;;;;;;;10.73;3.20;;;19.60;1.00;;;;;;5097014;28;20482;-52
2023/10/04 11:09:23;;;;;;;10.03;3.47;;;19.50;1.00;;;;;;5097378;28;20208;-50
2023/10/04 11:11:49;;;;;;;11.17;3.90;;;19.40;1.00;;;;;;5097177;28;20208;-50
2023/10/04 11:14:18;;;;;;;12.00;3.80;;;19.00;1.00;;;;;;5097260;28;20190;-51
2023/10/04 11:16:44;;;;;;;13.47;4.07;;;18.60;1.00;;;;;;5096831;28;20185;-51
2023/10/04 11:19:10;;;;;;;11.57;4.17;;;18.20;1.00;;;;;;5096545;28;20765;-50
2023/10/04 11:21:36;;;;;;;12.27;3.50;;;18.00;1.00;;;;;;5096841;28;20187;-52
2023/10/04 11:24:04;;;;;;;14.40;3.90;;;18.50;1.00;;;;;;5096881;28;20467;-52
2023/10/04 11:26:30;;;;;;;18.27;4.17;;;19.50;1.00;;;;;;5096796;28;20900;-51
2023/10/04 11:28:57;;;;;;;11.67;4.10;;;19.90;1.00;;;;;;5096479;28;20489;-51
2023/10/04 11:31:23;;;;;;;14.67;4.10;;;20.80;1.00;;;;;;5096468;28;20412;-50
2023/10/04 11:33:53;;;;;;;16.27;4.10;;;22.10;1.00;;;;;;5096307;28;20432;-50
2023/10/04 11:36:28;;;;;;;13.80;4.37;;;22.50;1.00;;;;;;5096413;28;20494;-49
2023/10/04 11:38:54;;;;;;;13.20;4.00;;;22.50;1.00;;;;;;5096343;28;20395;-50
2023/10/04 11:41:19;;;;;;;13.50;4.80;;;22.10;1.00;;;;;;5096401;28;20479;-50
2023/10/04 11:43:46;;;;;;;9.80;3.70;;;22.20;1.00;;;;;;5096433;28;20185;-50
2023/10/04 11:46:12;;;;;;;11.53;3.83;;;22.50;1.00;;;;;;5096394;28;20676;-50
2023/10/04 11:48:37;;;;;;;17.50;4.17;;;22.90;1.00;;;;;;5096187;28;20455;-50
2023/10/04 11:51:06;;;;;;;12.70;3.90;;;23.10;1.00;;;;;;5095905;28;20351;-48
2023/10/04 11:53:45;;;;;;;12.10;3.70;;;23.70;1.00;;;;;;5096634;28;20181;-48
2023/10/04 11:56:11;;;;;;;12.00;4.47;;;24.60;1.00;;;;;;5096204;28;20891;-49
2023/10/04 11:58:47;;;;;;;11.07;3.80;;;25.00;1.00;;;;;;5096095;28;20423;-48
2023/10/04 12:01:20;;;;;;;7.70;4.20;;;25.10;1.00;;;;;;5096022;28;20513;-49
2023/10/04 12:03:56;;;;;;;14.97;4.20;;;25.00;1.00;;;;;;5096092;28;20415;-48
2023/10/04 12:06:30;;;;;;;15.30;4.27;;;24.80;1.00;;;;;;5096353;28;20400;-49
2023/10/04 12:08:59;;;;;;;10.30;4.33;;;25.00;1.00;;;;;;5095697;28;20478;-49
2023/10/04 12:11:33;;;;;;;10.30;4.20;;;24.60;1.00;;;;;;5095991;28;20458;-49
2023/10/04 12:13:59;;;;;;;13.47;4.53;;;24.30;1.00;;;;;;5095776;28;20462;-49
2023/10/04 12:16:25;;;;;;;10.00;4.97;;;24.00;1.00;;;;;;5095446;28;20447;-49
2023/10/04 12:18:51;;;;;;;10.60;4.53;;;23.80;1.00;;;;;;5095591;28;20197;-49
2023/10/04 12:21:17;;;;;;;11.17;4.30;;;22.90;1.00;;;;;;5095495;28;20412;-49
2023/10/04 12:23:43;;;;;;;13.23;4.43;;;22.50;1.00;;;;;;5095528;28;20236;-50
2023/10/04 12:26:09;;;;;;;11.17;4.83;;;22.10;1.00;;;;;;5095929;28;20403;-50
2023/10/04 12:28:36;;;;;;;10.73;4.53;;;22.60;1.00;;;;;;5095196;28;20679;-50
2023/10/04 12:31:02;;;;;;;13.43;5.03;;;23.30;1.00;;;;;;5094937;28;20243;-49
2023/10/04 12:33:29;;;;;;;10.97;4.83;;;24.10;1.00;;;;;;5095744;28;20445;-50
2023/10/04 12:35:56;;;;;;;12.93;5.17;;;24.10;1.00;;;;;;5095058;28;20827;-50
2023/10/04 12:38:24;;;;;;;13.63;4.37;;;23.90;1.00;;;;;;5095032;28;20762;-51
2023/10/04 12:40:50;;;;;;;15.87;4.70;;;23.50;1.00;;;;;;5095112;28;20888;-49
2023/10/04 12:43:16;;;;;;;17.10;4.87;;;23.30;1.00;;;;;;5095016;28;20408;-49
2023/10/04 12:45:42;;;;;;;15.57;5.07;;;22.90;1.00;;;;;;5094588;28;20415;-49
2023/10/04 12:48:08;;;;;;;11.70;4.77;;;22.40;1.00;;;;;;5095023;28;20300;-51
2023/10/04 12:50:35;;;;;;;12.50;5.07;;;21.70;1.00;;;;;;5095054;28;20510;-51